Time;durP1;ratioP1;P1;durP2;ratioP2;P2;SDS_P1;SDS_P2;PMS_P1;PMS_P2;Temp;Humidity;BMP_temperature;BMP_pressure;BME280_temperature;BME280_humidity;BME280_pressure;Samples;Min_cycle;Max_cycle;Signal;HPM_P1;HPM_P2
2022/07/11 00:02:04;;;;;;;3.28;1.30;;;;;;;;;;4981726;28;20104;-71
2022/07/11 00:04:31;;;;;;;1.48;1.02;;;;;;;;;;4981492;28;20201;-71
2022/07/11 00:06:57;;;;;;;1.23;0.80;;;;;;;;;;4981763;28;20613;-70
2022/07/11 00:09:23;;;;;;;1.85;1.17;;;;;;;;;;4981141;28;20402;-70
2022/07/11 00:11:48;;;;;;;5.28;1.00;;;;;;;;;;4981611;28;20030;-70
2022/07/11 00:14:14;;;;;;;1.83;1.00;;;;;;;;;;4979674;28;20104;-71
2022/07/11 00:16:40;;;;;;;2.55;0.90;;;;;;;;;;4981648;28;20041;-71
2022/07/11 00:19:05;;;;;;;1.70;0.90;;;;;;;;;;4981385;28;20042;-70
2022/07/11 00:21:32;;;;;;;1.30;0.88;;;;;;;;;;4980698;28;20041;-71
2022/07/11 00:23:58;;;;;;;4.22;1.27;;;;;;;;;;4981008;28;20078;-70
2022/07/11 00:26:24;;;;;;;1.17;1.00;;;;;;;;;;4981460;28;20121;-71
2022/07/11 00:28:49;;;;;;;3.13;1.20;;;;;;;;;;4981677;28;20034;-70
2022/07/11 00:31:15;;;;;;;1.20;0.80;;;;;;;;;;4980477;28;20030;-71
2022/07/11 00:33:40;;;;;;;2.35;0.93;;;;;;;;;;4981316;28;20494;-71
2022/07/11 00:36:06;;;;;;;2.13;0.80;;;;;;;;;;4981303;28;20137;-71
2022/07/11 00:38:31;;;;;;;2.45;0.90;;;;;;;;;;4981481;28;20092;-70
2022/07/11 00:40:57;;;;;;;1.13;0.80;;;;;;;;;;4980022;28;20038;-71
2022/07/11 00:43:30;;;;;;;1.30;0.77;;;;;;;;;;4980308;28;20039;-70
2022/07/11 00:45:55;;;;;;;6.20;0.90;;;;;;;;;;4981687;28;20041;-70
2022/07/11 00:48:21;;;;;;;2.25;0.70;;;;;;;;;;4981610;28;20034;-70
2022/07/11 00:50:46;;;;;;;6.03;1.00;;;;;;;;;;4981669;28;20154;-71
2022/07/11 00:53:12;;;;;;;3.03;0.80;;;;;;;;;;4984197;28;20046;-71
2022/07/11 00:55:38;;;;;;;3.85;0.98;;;;;;;;;;4984794;28;20034;-71
2022/07/11 00:58:03;;;;;;;3.72;0.98;;;;;;;;;;4984922;28;20105;-71
2022/07/11 01:00:29;;;;;;;2.17;0.80;;;;;;;;;;4985067;28;20042;-71
2022/07/11 01:02:54;;;;;;;1.90;0.82;;;;;;;;;;4984774;28;20503;-71
2022/07/11 01:05:20;;;;;;;1.67;0.90;;;;;;;;;;4983561;28;20042;-70
2022/07/11 01:07:45;;;;;;;1.33;0.60;;;;;;;;;;4984743;28;20035;-70
2022/07/11 01:10:11;;;;;;;2.45;1.00;;;;;;;;;;4984291;28;20042;-71
2022/07/11 01:12:36;;;;;;;4.18;0.73;;;;;;;;;;4984417;28;20034;-71
2022/07/11 01:15:03;;;;;;;2.92;1.00;;;;;;;;;;4998443;28;20073;-71
2022/07/11 01:17:29;;;;;;;1.30;0.88;;;;;;;;;;4984258;28;20911;-71
2022/07/11 01:19:54;;;;;;;1.15;0.90;;;;;;;;;;4984449;28;20030;-71
2022/07/11 01:22:24;;;;;;;6.15;1.02;;;;;;;;;;4984382;28;21039;-71
2022/07/11 01:24:49;;;;;;;1.63;0.63;;;;;;;;;;4983040;28;20112;-71
2022/07/11 01:27:15;;;;;;;2.67;0.77;;;;;;;;;;4983268;28;20102;-71
2022/07/11 01:29:41;;;;;;;1.40;1.00;;;;;;;;;;4984166;28;20038;-71
2022/07/11 01:32:07;;;;;;;1.90;0.88;;;;;;;;;;4984378;28;20038;-71
2022/07/11 01:34:33;;;;;;;1.65;0.80;;;;;;;;;;4983789;28;20133;-71
2022/07/11 01:36:59;;;;;;;2.35;0.90;;;;;;;;;;4982091;28;20034;-71
2022/07/11 01:39:24;;;;;;;1.75;1.08;;;;;;;;;;4979197;28;20559;-71
2022/07/11 01:41:50;;;;;;;2.05;0.77;;;;;;;;;;4983635;28;20677;-70
2022/07/11 01:44:15;;;;;;;2.38;0.88;;;;;;;;;;4983440;28;20030;-70
2022/07/11 01:46:40;;;;;;;2.03;0.73;;;;;;;;;;4983904;28;20384;-71
2022/07/11 01:49:06;;;;;;;6.05;0.93;;;;;;;;;;4981404;28;20042;-70
2022/07/11 01:51:31;;;;;;;2.78;0.70;;;;;;;;;;4983755;28;20037;-70
2022/07/11 01:53:57;;;;;;;2.08;0.90;;;;;;;;;;4983606;28;20497;-70
2022/07/11 01:56:23;;;;;;;1.33;1.00;;;;;;;;;;4983972;28;20033;-70
2022/07/11 01:58:48;;;;;;;2.85;1.02;;;;;;;;;;4981833;28;20125;-70
2022/07/11 02:01:14;;;;;;;3.13;1.10;;;;;;;;;;4983742;28;20089;-71
2022/07/11 02:03:40;;;;;;;1.90;0.95;;;;;;;;;;4982783;28;20034;-70
2022/07/11 02:06:06;;;;;;;5.05;1.27;;;;;;;;;;4983339;28;20057;-71
2022/07/11 02:08:31;;;;;;;2.00;0.88;;;;;;;;;;4983763;28;20471;-70
2022/07/11 02:10:57;;;;;;;8.38;1.10;;;;;;;;;;4981082;28;20083;-70
2022/07/11 02:13:23;;;;;;;2.67;0.88;;;;;;;;;;4983421;28;20076;-71
2022/07/11 02:15:50;;;;;;;2.30;1.10;;;;;;;;;;4983330;28;20041;-71
2022/07/11 02:18:17;;;;;;;1.90;1.00;;;;;;;;;;4983339;28;20490;-71
2022/07/11 02:20:45;;;;;;;1.30;0.77;;;;;;;;;;4982700;28;20169;-71
2022/07/11 02:23:12;;;;;;;6.00;1.23;;;;;;;;;;4982854;28;20049;-70
2022/07/11 02:25:38;;;;;;;1.88;1.05;;;;;;;;;;4982933;28;20070;-70
2022/07/11 02:28:06;;;;;;;1.45;1.02;;;;;;;;;;4983519;28;20073;-70
2022/07/11 02:30:31;;;;;;;3.28;1.02;;;;;;;;;;4983625;28;20049;-70
2022/07/11 02:32:57;;;;;;;2.10;1.20;;;;;;;;;;4980788;28;20030;-70
2022/07/11 02:35:22;;;;;;;2.72;1.13;;;;;;;;;;4982992;28;20061;-70
2022/07/11 02:37:48;;;;;;;2.25;1.00;;;;;;;;;;4983145;28;20539;-71
2022/07/11 02:40:14;;;;;;;1.30;1.00;;;;;;;;;;4982941;28;20096;-70
2022/07/11 02:42:39;;;;;;;0.98;0.98;;;;;;;;;;4981706;28;20035;-71
2022/07/11 02:45:07;;;;;;;3.97;1.17;;;;;;;;;;4982910;28;20042;-70
2022/07/11 02:47:33;;;;;;;1.02;0.95;;;;;;;;;;4982455;28;20042;-71
2022/07/11 02:49:59;;;;;;;1.13;0.80;;;;;;;;;;4982809;28;20038;-71
2022/07/11 02:52:24;;;;;;;1.00;0.90;;;;;;;;;;4982887;28;20038;-70
2022/07/11 02:54:49;;;;;;;2.92;0.98;;;;;;;;;;4981661;28;21224;-70
2022/07/11 02:57:15;;;;;;;2.10;1.13;;;;;;;;;;4981275;28;20030;-70
2022/07/11 02:59:40;;;;;;;2.10;0.90;;;;;;;;;;4982589;28;20855;-71
2022/07/11 03:02:06;;;;;;;2.55;1.15;;;;;;;;;;4982721;28;20053;-70
2022/07/11 03:04:32;;;;;;;3.85;1.08;;;;;;;;;;4979855;28;20038;-71
2022/07/11 03:06:57;;;;;;;0.98;0.95;;;;;;;;;;4982508;28;20574;-71
2022/07/11 03:09:23;;;;;;;4.30;1.20;;;;;;;;;;4982268;28;20109;-70
2022/07/11 03:11:50;;;;;;;1.98;0.90;;;;;;;;;;4982804;28;20077;-71
2022/07/11 03:14:16;;;;;;;1.60;0.90;;;;;;;;;;4982422;28;20056;-70
2022/07/11 03:16:41;;;;;;;2.38;0.88;;;;;;;;;;4982432;28;20061;-70
2022/07/11 03:19:07;;;;;;;1.13;0.95;;;;;;;;;;4980819;28;20649;-70
2022/07/11 03:21:32;;;;;;;3.47;0.80;;;;;;;;;;4982492;28;20046;-70
2022/07/11 03:23:57;;;;;;;2.05;0.90;;;;;;;;;;4981910;28;20034;-70
2022/07/11 03:26:23;;;;;;;2.60;1.02;;;;;;;;;;4981342;28;20491;-70
2022/07/11 03:28:48;;;;;;;3.00;0.90;;;;;;;;;;4982110;28;20042;-70
2022/07/11 03:31:14;;;;;;;1.10;1.05;;;;;;;;;;4982148;28;20037;-70
2022/07/11 03:33:39;;;;;;;2.95;1.00;;;;;;;;;;4981875;28;20114;-71
2022/07/11 03:36:05;;;;;;;2.35;0.88;;;;;;;;;;4981831;28;20120;-70
2022/07/11 03:38:30;;;;;;;2.65;1.00;;;;;;;;;;4981284;28;20041;-70
2022/07/11 03:40:56;;;;;;;2.03;0.98;;;;;;;;;;4978846;28;20265;-70
2022/07/11 03:43:22;;;;;;;5.47;1.17;;;;;;;;;;4981539;28;20438;-70
2022/07/11 03:45:48;;;;;;;1.70;1.00;;;;;;;;;;4981697;28;20041;-70
2022/07/11 03:48:13;;;;;;;3.28;1.17;;;;;;;;;;4978662;28;20038;-70
2022/07/11 03:50:38;;;;;;;1.50;1.08;;;;;;;;;;4981204;28;20049;-70
2022/07/11 03:53:04;;;;;;;3.30;0.80;;;;;;;;;;4981618;28;20045;-70
2022/07/11 03:55:31;;;;;;;2.58;0.90;;;;;;;;;;4981690;28;20089;-71
2022/07/11 03:57:56;;;;;;;1.63;0.90;;;;;;;;;;4981929;28;20080;-71
2022/07/11 04:00:21;;;;;;;2.83;1.05;;;;;;;;;;4981198;28;20113;-70
2022/07/11 04:02:47;;;;;;;3.15;1.27;;;;;;;;;;4981462;28;20062;-70
2022/07/11 04:05:13;;;;;;;1.73;1.10;;;;;;;;;;4981545;28;20042;-71
2022/07/11 04:07:39;;;;;;;1.60;1.00;;;;;;;;;;4981951;28;20038;-70
2022/07/11 04:10:05;;;;;;;1.48;1.00;;;;;;;;;;4981398;28;20480;-71
2022/07/11 04:12:31;;;;;;;5.90;1.10;;;;;;;;;;4981132;28;20057;-71
2022/07/11 04:14:56;;;;;;;2.60;1.00;;;;;;;;;;4981216;28;20061;-71
2022/07/11 04:17:22;;;;;;;3.40;1.00;;;;;;;;;;4981656;28;20065;-71
2022/07/11 04:19:47;;;;;;;2.80;1.08;;;;;;;;;;4981596;28;20038;-70
2022/07/11 04:22:13;;;;;;;6.72;1.30;;;;;;;;;;4981204;28;20066;-71
2022/07/11 04:24:38;;;;;;;0.73;0.73;;;;;;;;;;4981431;28;20121;-71
2022/07/11 04:27:04;;;;;;;2.90;1.10;;;;;;;;;;4985419;28;20049;-71
2022/07/11 04:29:30;;;;;;;1.30;0.90;;;;;;;;;;4985706;28;20124;-71
2022/07/11 04:31:55;;;;;;;1.27;0.95;;;;;;;;;;4985023;28;20594;-70
2022/07/11 04:34:21;;;;;;;1.63;0.93;;;;;;;;;;4983360;28;20037;-71
2022/07/11 04:36:46;;;;;;;4.05;1.33;;;;;;;;;;4983670;28;20048;-70
2022/07/11 04:39:12;;;;;;;2.13;1.23;;;;;;;;;;4985089;28;20045;-71
2022/07/11 04:41:38;;;;;;;3.65;1.10;;;;;;;;;;4984449;28;20034;-70
2022/07/11 04:44:04;;;;;;;2.95;0.90;;;;;;;;;;4983751;28;20049;-71
2022/07/11 04:46:31;;;;;;;2.40;1.30;;;;;;;;;;4983611;28;20038;-71
2022/07/11 04:48:56;;;;;;;0.98;0.73;;;;;;;;;;4985172;28;20042;-70
2022/07/11 04:51:23;;;;;;;1.92;0.80;;;;;;;;;;4984967;28;20038;-70
2022/07/11 04:53:49;;;;;;;2.03;0.70;;;;;;;;;;4983676;28;20105;-70
2022/07/11 04:56:14;;;;;;;0.93;0.68;;;;;;;;;;4983561;28;20877;-70
2022/07/11 04:58:40;;;;;;;2.85;0.70;;;;;;;;;;4985119;28;20038;-70
2022/07/11 05:01:05;;;;;;;1.70;0.70;;;;;;;;;;4984723;28;20042;-70
2022/07/11 05:03:34;;;;;;;5.63;0.90;;;;;;;;;;4984424;28;20058;-70
2022/07/11 05:06:00;;;;;;;1.98;0.77;;;;;;;;;;4982157;28;20072;-70
2022/07/11 05:08:25;;;;;;;3.53;0.90;;;;;;;;;;4984974;28;20483;-70
2022/07/11 05:10:50;;;;;;;0.95;0.60;;;;;;;;;;4984598;28;20911;-70
2022/07/11 05:13:16;;;;;;;3.17;0.82;;;;;;;;;;4984261;28;20038;-70
2022/07/11 05:15:42;;;;;;;2.47;0.80;;;;;;;;;;4982748;28;20133;-70
2022/07/11 05:18:08;;;;;;;5.72;0.90;;;;;;;;;;4976823;28;20069;-70
2022/07/11 05:20:33;;;;;;;2.38;0.70;;;;;;;;;;4980651;28;20066;-70
2022/07/11 05:22:58;;;;;;;1.88;0.68;;;;;;;;;;4980720;28;20045;-70
2022/07/11 05:25:25;;;;;;;2.03;0.90;;;;;;;;;;4979918;28;20586;-70
2022/07/11 05:27:50;;;;;;;1.25;0.68;;;;;;;;;;4980237;28;20549;-71
2022/07/11 05:30:16;;;;;;;1.15;0.90;;;;;;;;;;4980276;28;20058;-70
2022/07/11 05:32:41;;;;;;;2.25;0.75;;;;;;;;;;4982431;28;20038;-70
2022/07/11 05:35:07;;;;;;;2.17;0.93;;;;;;;;;;4982492;28;20050;-70
2022/07/11 05:37:33;;;;;;;2.55;0.68;;;;;;;;;;4981485;28;20038;-70
2022/07/11 05:39:58;;;;;;;4.97;0.82;;;;;;;;;;4982239;28;20038;-70
2022/07/11 05:42:24;;;;;;;0.82;0.70;;;;;;;;;;4983406;28;20030;-71
2022/07/11 05:44:49;;;;;;;0.70;0.60;;;;;;;;;;4983881;28;20500;-69
2022/07/11 05:47:15;;;;;;;1.23;0.75;;;;;;;;;;4983816;28;20042;-69
2022/07/11 05:49:44;;;;;;;5.13;1.00;;;;;;;;;;4983785;28;20030;-69
2022/07/11 05:52:10;;;;;;;1.55;0.88;;;;;;;;;;4983875;28;20380;-69
2022/07/11 05:54:35;;;;;;;1.75;0.60;;;;;;;;;;4982801;28;20053;-71
2022/07/11 05:57:02;;;;;;;2.88;0.77;;;;;;;;;;4983465;28;20034;-70
2022/07/11 05:59:28;;;;;;;0.80;0.52;;;;;;;;;;4982112;28;20034;-69
2022/07/11 06:01:54;;;;;;;1.80;0.85;;;;;;;;;;4983066;28;20039;-69
2022/07/11 06:04:19;;;;;;;1.02;0.63;;;;;;;;;;4983294;28;20037;-71
2022/07/11 06:06:45;;;;;;;2.88;1.00;;;;;;;;;;4983480;28;20399;-70
2022/07/11 06:09:10;;;;;;;1.02;0.70;;;;;;;;;;4982158;28;20050;-70
2022/07/11 06:11:36;;;;;;;2.20;0.88;;;;;;;;;;4982635;28;20105;-71
2022/07/11 06:14:01;;;;;;;2.30;0.90;;;;;;;;;;4981407;28;20038;-72
2022/07/11 06:16:27;;;;;;;4.80;0.65;;;;;;;;;;4988377;28;20061;-73
2022/07/11 06:18:52;;;;;;;3.92;0.93;;;;;;;;;;4985255;28;20661;-72
2022/07/11 06:21:20;;;;;;;0.70;0.60;;;;;;;;;;4983288;28;20030;-71
2022/07/11 06:23:45;;;;;;;0.93;0.50;;;;;;;;;;4982294;28;20077;-70
2022/07/11 06:26:11;;;;;;;3.97;0.68;;;;;;;;;;4982772;28;20149;-72
2022/07/11 06:28:38;;;;;;;3.28;0.80;;;;;;;;;;4982300;28;20495;-70
2022/07/11 06:31:03;;;;;;;1.27;0.82;;;;;;;;;;4983341;28;20076;-71
2022/07/11 06:33:29;;;;;;;1.05;0.70;;;;;;;;;;4982182;28;20658;-70
2022/07/11 06:35:54;;;;;;;3.25;0.90;;;;;;;;;;4982895;28;20030;-71
2022/07/11 06:38:20;;;;;;;2.10;0.85;;;;;;;;;;4983172;28;20045;-72
2022/07/11 06:40:46;;;;;;;1.42;0.70;;;;;;;;;;4983214;28;20459;-69
2022/07/11 06:43:12;;;;;;;2.42;0.80;;;;;;;;;;4982683;28;20045;-71
2022/07/11 06:45:38;;;;;;;1.58;0.75;;;;;;;;;;4982280;28;20229;-73
2022/07/11 06:48:05;;;;;;;6.63;0.77;;;;;;;;;;4982355;28;20034;-70
2022/07/11 06:50:31;;;;;;;2.83;0.80;;;;;;;;;;4982669;28;20046;-70
2022/07/11 06:52:56;;;;;;;2.00;0.73;;;;;;;;;;4982790;28;20037;-70
2022/07/11 06:55:22;;;;;;;2.65;0.63;;;;;;;;;;4981413;28;20442;-72
2022/07/11 06:57:49;;;;;;;0.93;0.57;;;;;;;;;;4983043;28;20438;-71
2022/07/11 07:00:16;;;;;;;2.17;0.70;;;;;;;;;;4982343;28;20043;-72
2022/07/11 07:02:42;;;;;;;3.28;0.90;;;;;;;;;;4981057;28;20372;-70
2022/07/11 07:05:08;;;;;;;4.07;0.98;;;;;;;;;;4981880;28;20030;-70
2022/07/11 07:07:34;;;;;;;3.33;0.73;;;;;;;;;;4981614;28;20030;-70
2022/07/11 07:09:59;;;;;;;4.30;0.80;;;;;;;;;;4982450;28;20053;-70
2022/07/11 07:12:25;;;;;;;1.85;0.70;;;;;;;;;;4981977;28;20415;-70
2022/07/11 07:14:50;;;;;;;1.67;0.93;;;;;;;;;;4983016;28;20123;-70
2022/07/11 07:17:16;;;;;;;1.60;0.60;;;;;;;;;;4981694;28;20033;-71
2022/07/11 07:19:42;;;;;;;1.52;0.80;;;;;;;;;;4982407;28;20057;-71
2022/07/11 07:22:08;;;;;;;1.80;0.90;;;;;;;;;;4981899;28;20082;-70
2022/07/11 07:24:34;;;;;;;2.17;0.65;;;;;;;;;;4981930;28;20096;-71
2022/07/11 07:26:59;;;;;;;2.65;0.80;;;;;;;;;;4980585;28;20483;-71
2022/07/11 07:29:28;;;;;;;4.38;0.90;;;;;;;;;;4976192;28;20042;-72
2022/07/11 07:31:53;;;;;;;2.45;0.80;;;;;;;;;;4982246;28;20509;-71
2022/07/11 07:34:20;;;;;;;3.47;0.80;;;;;;;;;;4981903;28;20026;-71
2022/07/11 07:36:45;;;;;;;3.72;1.05;;;;;;;;;;4981987;28;20081;-71
2022/07/11 07:39:11;;;;;;;1.33;0.65;;;;;;;;;;4981290;28;20602;-72
2022/07/11 07:41:36;;;;;;;4.00;0.70;;;;;;;;;;4981738;28;20550;-70
2022/07/11 07:44:02;;;;;;;1.83;0.88;;;;;;;;;;4979872;28;20093;-71
2022/07/11 07:46:28;;;;;;;2.47;0.70;;;;;;;;;;4981965;28;20064;-74
2022/07/11 07:48:53;;;;;;;2.45;0.70;;;;;;;;;;4981582;28;20140;-74
2022/07/11 07:51:19;;;;;;;2.95;0.68;;;;;;;;;;4982442;28;20096;-75
2022/07/11 07:53:44;;;;;;;1.42;0.70;;;;;;;;;;4981590;28;20065;-76
2022/07/11 07:56:10;;;;;;;2.70;0.90;;;;;;;;;;4981399;28;20049;-76
2022/07/11 07:58:35;;;;;;;1.95;0.60;;;;;;;;;;4982084;28;20034;-76
2022/07/11 08:03:45;;;;;;;4.22;0.80;;;;;;;;;;4981149;28;20125;-75
2022/07/11 08:06:10;;;;;;;1.23;0.70;;;;;;;;;;4979515;28;20121;-77
2022/07/11 08:08:36;;;;;;;1.48;0.52;;;;;;;;;;4981850;28;20085;-75
2022/07/11 08:11:02;;;;;;;2.83;1.13;;;;;;;;;;4980211;28;20077;-74
2022/07/11 08:13:28;;;;;;;6.40;1.00;;;;;;;;;;4979124;28;20072;-75
2022/07/11 08:15:54;;;;;;;1.67;0.80;;;;;;;;;;4980405;28;20038;-74
2022/07/11 08:18:20;;;;;;;0.77;0.70;;;;;;;;;;4981490;28;20376;-74
2022/07/11 08:20:45;;;;;;;3.45;0.80;;;;;;;;;;4980374;28;20048;-75
2022/07/11 08:23:10;;;;;;;3.53;0.93;;;;;;;;;;4980442;28;20056;-75
2022/07/11 08:25:36;;;;;;;4.47;0.90;;;;;;;;;;4963849;28;20034;-74
2022/07/11 08:28:01;;;;;;;3.95;1.23;;;;;;;;;;4981574;28;20626;-75
2022/07/11 08:30:27;;;;;;;3.75;0.90;;;;;;;;;;4982486;28;20038;-75
2022/07/11 08:32:52;;;;;;;2.55;0.80;;;;;;;;;;4981517;28;20065;-74
2022/07/11 08:35:18;;;;;;;2.55;1.00;;;;;;;;;;4980879;28;20562;-76
2022/07/11 08:37:44;;;;;;;3.60;1.00;;;;;;;;;;4979849;28;20871;-76
2022/07/11 08:40:10;;;;;;;1.15;0.80;;;;;;;;;;4979801;28;20498;-73
2022/07/11 08:42:41;;;;;;;3.50;0.90;;;;;;;;;;4980678;28;20026;-75
2022/07/11 08:45:10;;;;;;;3.85;0.82;;;;;;;;;;4980335;28;20399;-73
2022/07/11 08:47:36;;;;;;;1.88;0.85;;;;;;;;;;4981206;28;20170;-75
2022/07/11 08:50:01;;;;;;;2.10;0.73;;;;;;;;;;4981577;28;20100;-75
2022/07/11 08:52:29;;;;;;;2.55;0.90;;;;;;;;;;4980925;28;20038;-74
2022/07/11 08:54:55;;;;;;;5.13;1.10;;;;;;;;;;4981158;28;20081;-73
2022/07/11 08:57:21;;;;;;;2.85;0.95;;;;;;;;;;4981256;28;20034;-72
2022/07/11 08:59:55;;;;;;;2.08;1.17;;;;;;;;;;4984212;28;20034;-71
2022/07/11 09:02:23;;;;;;;2.45;0.90;;;;;;;;;;4982904;28;20137;-74
2022/07/11 09:04:48;;;;;;;2.83;0.73;;;;;;;;;;4979405;28;20530;-73
2022/07/11 09:07:17;;;;;;;2.40;0.80;;;;;;;;;;4980413;28;20038;-74
2022/07/11 09:09:44;;;;;;;4.30;0.80;;;;;;;;;;4965012;28;20049;-73
2022/07/11 09:12:15;;;;;;;5.13;0.82;;;;;;;;;;4983692;28;21212;-73
2022/07/11 09:14:47;;;;;;;2.83;0.68;;;;;;;;;;4983832;28;20129;-73
2022/07/11 09:17:13;;;;;;;2.92;0.90;;;;;;;;;;4983366;28;20046;-74
2022/07/11 09:19:39;;;;;;;3.03;0.90;;;;;;;;;;4983747;28;20044;-72
2022/07/11 09:27:53;;;;;;;5.38;0.90;;;;;;;;;;4984165;28;20044;-73
2022/07/11 09:30:20;;;;;;;3.60;0.77;;;;;;;;;;4983617;28;20117;-73
2022/07/11 09:33:12;;;;;;;0.77;0.60;;;;;;;;;;4984213;28;20045;-74
2022/07/11 09:35:40;;;;;;;4.47;0.90;;;;;;;;;;4981219;28;20038;-74
2022/07/11 09:38:16;;;;;;;6.50;1.55;;;;;;;;;;4984112;28;20044;-73
2022/07/11 09:40:46;;;;;;;2.15;0.50;;;;;;;;;;4983198;28;20101;-72
2022/07/11 09:43:12;;;;;;;3.90;0.60;;;;;;;;;;4983641;28;20057;-73
2022/07/11 09:45:39;;;;;;;2.15;0.70;;;;;;;;;;4984071;28;20038;-73
2022/07/11 09:48:10;;;;;;;1.42;0.73;;;;;;;;;;4982513;28;20026;-72
2022/07/11 09:50:36;;;;;;;2.97;0.70;;;;;;;;;;4982619;28;20042;-71
2022/07/11 09:53:08;;;;;;;0.90;0.55;;;;;;;;;;4983022;28;20045;-70
2022/07/11 09:55:37;;;;;;;;;;;;;;;;;;4983525;28;20085;-72
2022/07/11 09:58:07;;;;;;;1.23;0.70;;;;;;;;;;4983145;28;19918;-72
2022/07/11 10:00:35;;;;;;;3.53;0.70;;;;;;;;;;4983985;28;20038;-72
2022/07/11 10:03:01;;;;;;;1.15;0.57;;;;;;;;;;4981075;28;20053;-72
2022/07/11 10:05:28;;;;;;;1.67;0.55;;;;;;;;;;4981620;28;20188;-72
2022/07/11 10:07:53;;;;;;;3.38;0.93;;;;;;;;;;4983548;28;20129;-72
2022/07/11 10:10:19;;;;;;;2.28;0.52;;;;;;;;;;4982179;28;20026;-72
2022/07/11 10:12:46;;;;;;;1.40;0.50;;;;;;;;;;4983440;28;20662;-74
2022/07/11 10:15:15;;;;;;;0.65;0.40;;;;;;;;;;4982462;28;20037;-72
2022/07/11 10:17:58;;;;;;;1.48;0.40;;;;;;;;;;4982096;28;20188;-72
2022/07/11 10:20:51;;;;;;;2.70;0.63;;;;;;;;;;4983343;28;20030;-72
2022/07/11 10:23:42;;;;;;;5.47;0.75;;;;;;;;;;4981291;28;20069;-73
2022/07/11 10:26:19;;;;;;;2.13;0.52;;;;;;;;;;4955646;28;20352;-74
2022/07/11 10:29:15;;;;;;;1.08;0.43;;;;;;;;;;4983251;28;20045;-74
2022/07/11 10:31:41;;;;;;;1.25;0.45;;;;;;;;;;4981008;28;20069;-72
2022/07/11 10:34:10;;;;;;;1.75;0.45;;;;;;;;;;4965510;28;20721;-72
2022/07/11 10:36:41;;;;;;;1.17;0.45;;;;;;;;;;4982005;28;20042;-72
2022/07/11 10:39:21;;;;;;;5.70;0.50;;;;;;;;;;4982801;28;20034;-71
2022/07/11 10:41:47;;;;;;;1.60;0.63;;;;;;;;;;4982958;28;20035;-73
2022/07/11 10:44:12;;;;;;;1.80;0.47;;;;;;;;;;4982805;28;20046;-71
2022/07/11 10:46:38;;;;;;;0.77;0.40;;;;;;;;;;4982205;28;20404;-72
2022/07/11 10:49:12;;;;;;;0.68;0.30;;;;;;;;;;4982606;28;20036;-71
2022/07/11 10:51:41;;;;;;;3.05;0.30;;;;;;;;;;4981975;28;20066;-72
2022/07/11 10:54:19;;;;;;;2.85;0.50;;;;;;;;;;4982483;28;20034;-70
2022/07/11 10:57:08;;;;;;;0.63;0.43;;;;;;;;;;4981645;28;20026;-71
2022/07/11 10:59:34;;;;;;;0.28;0.20;;;;;;;;;;4982070;28;20033;-72
2022/07/11 11:02:12;;;;;;;0.30;0.20;;;;;;;;;;4980912;28;20042;-72
2022/07/11 11:04:57;;;;;;;0.43;0.30;;;;;;;;;;4982029;28;20041;-71
2022/07/11 11:07:44;;;;;;;3.10;0.30;;;;;;;;;;4983237;28;20034;-71
2022/07/11 11:10:29;;;;;;;0.38;0.30;;;;;;;;;;4981381;28;20129;-73
2022/07/11 11:13:07;;;;;;;1.30;0.20;;;;;;;;;;4982227;28;20034;-70
2022/07/11 11:15:46;;;;;;;0.98;0.30;;;;;;;;;;4982203;28;20030;-72
2022/07/11 11:18:24;;;;;;;0.50;0.20;;;;;;;;;;4982154;28;20197;-71
2022/07/11 11:20:59;;;;;;;0.50;0.30;;;;;;;;;;4981577;28;20034;-70
2022/07/11 11:23:26;;;;;;;0.57;0.38;;;;;;;;;;4981738;28;20053;-72
2022/07/11 11:25:52;;;;;;;2.10;0.20;;;;;;;;;;4981506;28;20025;-70
2022/07/11 11:28:22;;;;;;;0.32;0.32;;;;;;;;;;4982274;28;20034;-71
2022/07/11 11:30:55;;;;;;;1.10;0.20;;;;;;;;;;4981261;28;20046;-71
2022/07/11 11:33:20;;;;;;;1.65;0.30;;;;;;;;;;4981920;28;20423;-71
2022/07/11 11:36:07;;;;;;;0.98;0.30;;;;;;;;;;4980976;28;20026;-71
2022/07/11 11:38:37;;;;;;;1.70;0.40;;;;;;;;;;4981927;28;20026;-71
2022/07/11 11:41:06;;;;;;;0.30;0.30;;;;;;;;;;4981538;28;20038;-70
2022/07/11 11:43:33;;;;;;;1.23;0.47;;;;;;;;;;4981416;28;20030;-71
2022/07/11 11:45:58;;;;;;;1.13;0.30;;;;;;;;;;4982034;28;20488;-71
2022/07/11 11:48:31;;;;;;;0.30;0.20;;;;;;;;;;4982049;28;20049;-71
2022/07/11 11:51:17;;;;;;;0.73;0.20;;;;;;;;;;4981879;28;20483;-71
2022/07/11 11:53:57;;;;;;;0.57;0.30;;;;;;;;;;4980760;28;20045;-71
2022/07/11 11:56:28;;;;;;;0.73;0.30;;;;;;;;;;4980940;28;20042;-72
2022/07/11 11:59:00;;;;;;;0.30;0.25;;;;;;;;;;4981789;28;20034;-71
2022/07/11 12:01:28;;;;;;;0.85;0.40;;;;;;;;;;4996912;28;20057;-71
2022/07/11 12:04:00;;;;;;;0.77;0.55;;;;;;;;;;4978535;28;20038;-71
2022/07/11 12:06:26;;;;;;;3.75;0.32;;;;;;;;;;4981492;28;20030;-72
2022/07/11 12:08:57;;;;;;;0.63;0.30;;;;;;;;;;4981381;28;20041;-73
2022/07/11 12:11:23;;;;;;;1.15;0.30;;;;;;;;;;4979611;28;20035;-72
2022/07/11 12:13:55;;;;;;;0.30;0.30;;;;;;;;;;4981101;28;20065;-71
2022/07/11 12:16:39;;;;;;;1.02;0.40;;;;;;;;;;4979439;28;20030;-70
2022/07/11 12:19:07;;;;;;;0.30;0.30;;;;;;;;;;4980965;28;20046;-72
2022/07/11 12:21:33;;;;;;;0.40;0.40;;;;;;;;;;4981264;28;20108;-73
2022/07/11 12:24:01;;;;;;;0.32;0.32;;;;;;;;;;4979550;28;20043;-71
2022/07/11 12:26:29;;;;;;;0.65;0.35;;;;;;;;;;4980650;28;20030;-71
2022/07/11 12:29:16;;;;;;;0.63;0.30;;;;;;;;;;4981421;28;20050;-72
2022/07/11 12:31:59;;;;;;;0.65;0.50;;;;;;;;;;4979280;28;20069;-73
2022/07/11 12:34:30;;;;;;;1.27;0.40;;;;;;;;;;4981325;28;20447;-71
2022/07/11 12:37:05;;;;;;;1.23;0.40;;;;;;;;;;4980108;28;20038;-73
2022/07/11 12:39:38;;;;;;;0.88;0.43;;;;;;;;;;4981031;28;20374;-72
2022/07/11 12:42:47;;;;;;;3.70;0.40;;;;;;;;;;4980376;28;20706;-70
2022/07/11 12:45:15;;;;;;;0.98;0.45;;;;;;;;;;4977464;28;20141;-70
2022/07/11 12:47:46;;;;;;;2.92;0.40;;;;;;;;;;4981348;28;20120;-70
2022/07/11 12:50:19;;;;;;;2.95;0.70;;;;;;;;;;4984554;28;20049;-70
2022/07/11 12:52:47;;;;;;;1.42;0.45;;;;;;;;;;4983713;28;20177;-72
2022/07/11 12:55:34;;;;;;;1.73;0.40;;;;;;;;;;4983786;28;20264;-70
2022/07/11 12:58:03;;;;;;;0.40;0.28;;;;;;;;;;4984460;28;20041;-70
2022/07/11 13:00:29;;;;;;;0.68;0.40;;;;;;;;;;4983869;28;20117;-72
2022/07/11 13:02:55;;;;;;;2.05;0.40;;;;;;;;;;4983244;28;20088;-73
2022/07/11 13:05:20;;;;;;;1.15;0.47;;;;;;;;;;4982224;28;20038;-72
2022/07/11 13:13:14;;;;;;;0.50;0.38;;;;;;;;;;4982841;28;20045;-72
2022/07/11 13:15:40;;;;;;;0.40;0.30;;;;;;;;;;4983032;28;20038;-72
2022/07/11 13:18:05;;;;;;;0.43;0.40;;;;;;;;;;4978522;28;20566;-71
2022/07/11 13:20:31;;;;;;;0.80;0.50;;;;;;;;;;4979619;28;20117;-72
2022/07/11 13:22:57;;;;;;;0.98;0.57;;;;;;;;;;4979994;28;20796;-74
2022/07/11 13:25:23;;;;;;;1.33;0.30;;;;;;;;;;4980732;28;20488;-73
2022/07/11 13:27:50;;;;;;;0.52;0.32;;;;;;;;;;4982099;28;20054;-73
2022/07/11 13:30:20;;;;;;;0.40;0.40;;;;;;;;;;4981182;28;20038;-71
2022/07/11 13:32:50;;;;;;;1.13;0.50;;;;;;;;;;4981275;28;20050;-71
2022/07/11 13:35:16;;;;;;;0.77;0.55;;;;;;;;;;4979238;28;20121;-71
2022/07/11 13:37:43;;;;;;;1.67;0.50;;;;;;;;;;4979313;28;20113;-72
2022/07/11 13:40:17;;;;;;;0.73;0.43;;;;;;;;;;4980006;28;20042;-71
2022/07/11 13:42:48;;;;;;;0.68;0.55;;;;;;;;;;4980877;28;20065;-72
2022/07/11 13:45:15;;;;;;;1.42;0.45;;;;;;;;;;4979388;28;20046;-72
2022/07/11 13:47:41;;;;;;;0.57;0.50;;;;;;;;;;4982124;28;20045;-72
2022/07/11 13:50:07;;;;;;;0.73;0.52;;;;;;;;;;4981122;28;20080;-72
2022/07/11 13:52:32;;;;;;;3.17;0.55;;;;;;;;;;4980683;28;20050;-71
2022/07/11 13:54:58;;;;;;;0.40;0.40;;;;;;;;;;4980583;28;20112;-72
2022/07/11 13:57:25;;;;;;;0.45;0.45;;;;;;;;;;4979650;28;20055;-74
2022/07/11 13:59:50;;;;;;;0.88;0.45;;;;;;;;;;4980386;28;20041;-70
2022/07/11 14:02:16;;;;;;;0.60;0.40;;;;;;;;;;4980510;28;20041;-73
2022/07/11 14:04:42;;;;;;;1.20;0.40;;;;;;;;;;4980828;28;20054;-71
2022/07/11 14:07:08;;;;;;;0.40;0.40;;;;;;;;;;4979358;28;20038;-71
2022/07/11 14:09:34;;;;;;;0.20;0.20;;;;;;;;;;4968496;28;20046;-72
2022/07/11 14:12:00;;;;;;;0.40;0.40;;;;;;;;;;4979501;28;20113;-71
2022/07/11 14:14:27;;;;;;;0.60;0.57;;;;;;;;;;4980173;28;20133;-71
2022/07/11 14:16:52;;;;;;;0.30;0.30;;;;;;;;;;4981412;28;20045;-69
2022/07/11 14:19:18;;;;;;;0.73;0.73;;;;;;;;;;4979880;28;20030;-73
2022/07/11 14:21:44;;;;;;;0.63;0.38;;;;;;;;;;4982525;28;20042;-70
2022/07/11 14:24:09;;;;;;;1.08;0.50;;;;;;;;;;4982491;28;20022;-71
2022/07/11 14:26:36;;;;;;;0.30;0.30;;;;;;;;;;4981654;28;20038;-72
2022/07/11 14:29:03;;;;;;;0.45;0.45;;;;;;;;;;4981626;28;20113;-72
2022/07/11 14:31:29;;;;;;;1.55;0.60;;;;;;;;;;4983157;28;20045;-71
2022/07/11 14:33:55;;;;;;;0.45;0.43;;;;;;;;;;4984296;28;20094;-72
2022/07/11 14:36:21;;;;;;;1.45;0.40;;;;;;;;;;4984281;28;20116;-71
2022/07/11 14:38:46;;;;;;;0.57;0.35;;;;;;;;;;4985320;28;20041;-73
2022/07/11 14:41:13;;;;;;;0.65;0.40;;;;;;;;;;4965033;28;20042;-74
2022/07/11 14:43:38;;;;;;;1.17;0.30;;;;;;;;;;4982397;28;20038;-72
2022/07/11 14:46:04;;;;;;;1.38;0.45;;;;;;;;;;4980160;28;20038;-72
2022/07/11 14:48:29;;;;;;;0.40;0.40;;;;;;;;;;4981862;28;20399;-75
2022/07/11 14:50:55;;;;;;;1.17;0.60;;;;;;;;;;4981858;28;20034;-72
2022/07/11 14:53:21;;;;;;;0.80;0.50;;;;;;;;;;4981612;28;20038;-72
2022/07/11 14:55:46;;;;;;;0.38;0.38;;;;;;;;;;4982221;28;20045;-72
2022/07/11 14:58:12;;;;;;;1.08;0.77;;;;;;;;;;4980570;28;20053;-72
2022/07/11 15:00:37;;;;;;;2.47;0.50;;;;;;;;;;4981842;28;20042;-70